createdAt,value
2022-08-30T00:01:05.179Z,101276.94
2022-08-30T00:03:34.901Z,101272.69
2022-08-30T00:06:01.591Z,101276.63
2022-08-30T00:08:28.165Z,101276.69
2022-08-30T00:10:55.434Z,101275.31
2022-08-30T00:13:23.226Z,101269.88
2022-08-30T00:15:50.115Z,101277.94
2022-08-30T00:18:18.288Z,101276.28
2022-08-30T00:20:46.206Z,101284.84
2022-08-30T00:23:13.893Z,101280.56
2022-08-30T00:25:41.205Z,101271.84
2022-08-30T00:28:07.781Z,101272.56
2022-08-30T00:30:34.357Z,101278.59
2022-08-30T00:33:00.953Z,101272.53
2022-08-30T00:35:27.847Z,101273.31
2022-08-30T00:37:54.471Z,101271.03
2022-08-30T00:40:24.901Z,101268.00
2022-08-30T00:42:59.579Z,101273.28
2022-08-30T00:45:33.954Z,101280.47
2022-08-30T00:48:01.044Z,101283.75
2022-08-30T00:50:42.025Z,101282.75
2022-08-30T00:53:13.505Z,101288.44
2022-08-30T00:55:43.147Z,101287.25
2022-08-30T00:58:18.217Z,101285.41
2022-08-30T01:00:44.850Z,101281.97
2022-08-30T01:03:11.454Z,101288.81
2022-08-30T01:05:38.799Z,101288.06
2022-08-30T01:08:06.378Z,101286.38
2022-08-30T01:10:36.863Z,101291.25
2022-08-30T01:13:04.021Z,101285.63
2022-08-30T01:15:32.937Z,101286.44
2022-08-30T01:18:02.761Z,101281.69
2022-08-30T01:20:56.959Z,101284.69
2022-08-30T01:23:25.725Z,101285.63
2022-08-30T01:25:55.574Z,101280.84
2022-08-30T01:28:25.633Z,101283.56
2022-08-30T01:30:52.723Z,101288.72
2022-08-30T01:33:21.303Z,101286.56
2022-08-30T01:36:12.360Z,101283.28
2022-08-30T01:38:51.800Z,101286.91
2022-08-30T01:41:24.980Z,101292.63
2022-08-30T01:43:55.483Z,101279.72
2022-08-30T01:46:24.679Z,101284.75
2022-08-30T01:48:56.062Z,101281.81
2022-08-30T01:51:26.461Z,101293.41
2022-08-30T01:53:53.231Z,101287.34
2022-08-30T01:56:20.421Z,101293.06
2022-08-30T01:58:47.299Z,101292.53
2022-08-30T02:01:16.495Z,101287.41
2022-08-30T02:03:45.291Z,101296.72
2022-08-30T02:06:14.718Z,101294.53
2022-08-30T02:08:42.170Z,101304.44
2022-08-30T02:11:09.892Z,101298.72
2022-08-30T02:13:39.239Z,101293.88
2022-08-30T02:16:07.800Z,101297.00
2022-08-30T02:18:35.831Z,101290.28
2022-08-30T02:21:03.283Z,101299.63
2022-08-30T02:23:30.061Z,101295.41
2022-08-30T02:25:56.900Z,101288.78
2022-08-30T02:28:25.799Z,101294.00
2022-08-30T02:30:53.618Z,101296.34
2022-08-30T02:33:21.003Z,101293.13
2022-08-30T02:35:47.592Z,101288.75
2022-08-30T02:38:14.259Z,101287.25
2022-08-30T02:40:41.169Z,101286.41
2022-08-30T02:43:07.768Z,101293.97
2022-08-30T02:45:34.325Z,101286.88
2022-08-30T02:48:01.478Z,101289.63
2022-08-30T02:50:28.423Z,101284.81
2022-08-30T02:52:55.569Z,101286.78
2022-08-30T02:55:22.877Z,101283.09
2022-08-30T02:57:50.127Z,101277.94
2022-08-30T03:00:19.973Z,101280.09
2022-08-30T03:02:47.056Z,101271.69
2022-08-30T03:05:16.457Z,101274.59
2022-08-30T03:07:45.797Z,101272.78
2022-08-30T03:10:14.051Z,101276.50
2022-08-30T03:12:41.672Z,101275.06
2022-08-30T03:15:09.969Z,101275.06
2022-08-30T03:17:36.482Z,101282.81
2022-08-30T03:20:03.607Z,101281.81
2022-08-30T03:22:30.513Z,101286.63
2022-08-30T03:24:59.449Z,101276.13
2022-08-30T03:27:26.918Z,101283.59
2022-08-30T03:29:54.049Z,101283.69
2022-08-30T03:32:21.299Z,101289.00
2022-08-30T03:34:49.142Z,101294.03
2022-08-30T03:37:16.087Z,101290.44
2022-08-30T03:39:45.682Z,101293.50
2022-08-30T03:42:13.148Z,101296.28
2022-08-30T03:44:39.866Z,101290.09
2022-08-30T03:47:07.212Z,101297.97
2022-08-30T03:49:34.495Z,101295.16
2022-08-30T03:52:01.024Z,101297.34
2022-08-30T03:54:27.570Z,101299.69
2022-08-30T03:56:54.579Z,101295.31
2022-08-30T03:59:21.278Z,101293.63
2022-08-30T04:01:48.051Z,101290.63
2022-08-30T04:04:18.749Z,101298.16
2022-08-30T04:06:47.494Z,101300.34
2022-08-30T04:09:14.088Z,101302.78
2022-08-30T04:11:40.654Z,101292.13
2022-08-30T04:14:07.819Z,101297.47
2022-08-30T04:16:34.640Z,101293.72
2022-08-30T04:19:01.615Z,101288.66
2022-08-30T04:21:28.240Z,101287.78
2022-08-30T04:23:55.118Z,101288.06
2022-08-30T04:26:21.938Z,101292.34
2022-08-30T04:28:48.944Z,101286.56
2022-08-30T04:31:17.356Z,101292.13
2022-08-30T04:33:44.514Z,101297.25
2022-08-30T04:36:13.838Z,101291.72
2022-08-30T04:38:41.832Z,101298.06
2022-08-30T04:41:16.381Z,101304.81
2022-08-30T04:43:45.634Z,101303.06
2022-08-30T04:46:13.981Z,101301.09
2022-08-30T04:48:40.763Z,101289.25
2022-08-30T04:51:12.365Z,101298.25
2022-08-30T04:53:38.940Z,101302.91
2022-08-30T04:56:18.300Z,101303.75
2022-08-30T04:58:47.176Z,101309.94
2022-08-30T05:01:19.864Z,101312.75
2022-08-30T05:03:48.480Z,101311.25
2022-08-30T05:06:16.341Z,101307.59
2022-08-30T05:08:46.769Z,101318.03
2022-08-30T05:11:15.382Z,101321.81
2022-08-30T05:13:42.924Z,101328.91
2022-08-30T05:16:10.253Z,101331.94
2022-08-30T05:18:37.409Z,101331.81
2022-08-30T05:21:20.468Z,101337.13
2022-08-30T05:23:48.334Z,101337.00
2022-08-30T05:26:18.738Z,101329.84
2022-08-30T05:28:45.935Z,101324.31
2022-08-30T05:31:25.279Z,101329.38
2022-08-30T05:33:53.904Z,101328.84
2022-08-30T05:36:23.863Z,101336.34
2022-08-30T05:38:51.435Z,101334.75
2022-08-30T05:41:26.531Z,101339.84
2022-08-30T05:43:55.932Z,101337.09
2022-08-30T05:46:22.883Z,101341.59
2022-08-30T05:48:49.998Z,101362.84
2022-08-30T05:51:23.330Z,101368.25
2022-08-30T05:53:52.300Z,101372.91
2022-08-30T05:56:25.936Z,101379.34
2022-08-30T05:58:54.640Z,101385.22
2022-08-30T06:01:36.496Z,101379.38
2022-08-30T06:04:04.940Z,101383.47
2022-08-30T06:06:33.877Z,101365.72
2022-08-30T06:09:01.459Z,101356.16
2022-08-30T06:11:32.555Z,101345.16
2022-08-30T06:13:59.436Z,101340.28
2022-08-30T06:16:27.396Z,101347.97
2022-08-30T06:18:55.659Z,101343.81
2022-08-30T06:21:25.080Z,101343.13
2022-08-30T06:23:52.828Z,101360.59
2022-08-30T06:26:19.456Z,101354.38
2022-08-30T06:28:46.232Z,101361.84
2022-08-30T06:31:16.353Z,101364.38
2022-08-30T06:33:43.404Z,101374.38
2022-08-30T06:36:14.094Z,101364.88
2022-08-30T06:38:40.945Z,101369.03
2022-08-30T06:41:10.374Z,101360.88
2022-08-30T06:43:37.476Z,101365.03
2022-08-30T06:46:06.299Z,101356.00
2022-08-30T06:48:32.969Z,101356.09
2022-08-30T06:50:59.553Z,101355.81
2022-08-30T06:53:27.283Z,101357.34
2022-08-30T06:56:00.690Z,101348.38
2022-08-30T06:58:28.642Z,101343.66
2022-08-30T07:00:55.441Z,101342.94
2022-08-30T07:03:22.755Z,101344.97
2022-08-30T07:05:50.492Z,101342.75
2022-08-30T07:08:18.298Z,101338.28
2022-08-30T07:10:45.843Z,101339.97
2022-08-30T07:13:12.811Z,101338.97
2022-08-30T07:15:45.043Z,101336.75
2022-08-30T07:18:31.678Z,101337.91
2022-08-30T07:20:59.699Z,101345.06
2022-08-30T07:23:26.238Z,101342.41
2022-08-30T07:25:53.183Z,101346.34
2022-08-30T07:28:19.763Z,101342.41
2022-08-30T07:30:46.300Z,101339.53
2022-08-30T07:33:13.716Z,101350.09
2022-08-30T07:35:40.374Z,101349.69
2022-08-30T07:38:06.962Z,101360.66
2022-08-30T07:40:33.600Z,101354.50
2022-08-30T07:43:02.158Z,101357.16
2022-08-30T07:45:28.709Z,101360.16
2022-08-30T07:47:55.296Z,101356.44
2022-08-30T07:50:24.016Z,101350.19
2022-08-30T07:52:51.102Z,101354.84
2022-08-30T07:55:17.884Z,101362.88
2022-08-30T07:57:44.450Z,101376.22
2022-08-30T08:00:11.658Z,101390.19
2022-08-30T08:02:41.813Z,101387.19
2022-08-30T08:05:15.046Z,101383.50
2022-08-30T08:07:44.108Z,101396.47
2022-08-30T08:10:10.900Z,101400.44
2022-08-30T08:12:38.692Z,101398.22
2022-08-30T08:15:08.640Z,101393.81
2022-08-30T08:17:35.566Z,101378.13
2022-08-30T08:20:03.128Z,101385.63
2022-08-30T08:22:29.661Z,101386.25
2022-08-30T08:24:56.925Z,101377.47
2022-08-30T08:27:25.017Z,101379.00
2022-08-30T08:29:51.593Z,101368.38
2022-08-30T08:32:18.446Z,101363.53
2022-08-30T08:34:44.986Z,101367.78
2022-08-30T08:37:11.534Z,101374.56
2022-08-30T08:39:38.523Z,101369.38
2022-08-30T08:42:14.845Z,101365.13
2022-08-30T08:44:59.675Z,101367.63
2022-08-30T08:47:55.838Z,101371.47
2022-08-30T08:50:24.141Z,101367.97
2022-08-30T08:53:45.579Z,101358.97
2022-08-30T08:56:16.769Z,101349.00
2022-08-30T08:58:51.326Z,101358.69
2022-08-30T09:01:21.881Z,101359.56
2022-08-30T09:03:49.156Z,101354.63
2022-08-30T09:06:22.664Z,101359.75
2022-08-30T09:08:49.695Z,101354.56
2022-08-30T09:11:26.076Z,101354.06
2022-08-30T09:13:54.433Z,101352.38
2022-08-30T09:16:47.768Z,101353.22
2022-08-30T09:19:40.121Z,101359.13
2022-08-30T09:22:40.611Z,101362.28
2022-08-30T09:25:17.925Z,101357.34
2022-08-30T09:27:47.941Z,101362.28
2022-08-30T09:30:18.914Z,101364.97
2022-08-30T09:32:56.270Z,101366.09
2022-08-30T09:35:25.803Z,101369.44
2022-08-30T09:37:56.532Z,101363.19
2022-08-30T09:40:43.057Z,101359.13
2022-08-30T09:43:25.687Z,101367.22
2022-08-30T09:45:58.461Z,101367.03
2022-08-30T09:48:40.596Z,101364.47
2022-08-30T09:51:09.946Z,101363.69
2022-08-30T09:54:18.314Z,101353.53
2022-08-30T09:57:20.863Z,101351.28
2022-08-30T10:00:08.970Z,101349.22
2022-08-30T10:02:48.697Z,101355.06
2022-08-30T10:05:23.566Z,101351.28
2022-08-30T10:08:08.746Z,101352.31
2022-08-30T10:11:05.855Z,101348.03
2022-08-30T10:13:53.378Z,101354.94
2022-08-30T10:16:26.269Z,101352.63
2022-08-30T10:19:12.276Z,101350.81
2022-08-30T10:21:45.790Z,101347.06
2022-08-30T10:24:20.808Z,101356.66
2022-08-30T10:27:02.820Z,101335.19
2022-08-30T10:29:42.260Z,101339.19
2022-08-30T10:32:20.117Z,101342.22
2022-08-30T10:34:54.748Z,101340.94
2022-08-30T10:37:26.856Z,101345.13
2022-08-30T10:39:59.298Z,101343.44
2022-08-30T10:42:36.665Z,101351.53
2022-08-30T10:45:12.967Z,101343.63
2022-08-30T10:47:44.741Z,101334.59
2022-08-30T10:50:22.556Z,101341.06
2022-08-30T10:53:09.513Z,101338.75
2022-08-30T10:55:49.434Z,101334.47
2022-08-30T10:58:18.417Z,101324.56
2022-08-30T11:01:14.974Z,101326.09
2022-08-30T11:04:20.517Z,101325.78
2022-08-30T11:07:02.597Z,101324.59
2022-08-30T11:09:30.606Z,101330.53
2022-08-30T11:12:22.837Z,101329.31
2022-08-30T11:14:50.725Z,101324.47
2022-08-30T11:17:44.874Z,101318.59
2022-08-30T11:20:34.608Z,101312.41
2022-08-30T11:23:23.990Z,101314.84
2022-08-30T11:26:20.700Z,101306.81
2022-08-30T11:28:47.864Z,101314.34
2022-08-30T11:31:20.396Z,101302.06
2022-08-30T11:33:53.192Z,101307.53
2022-08-30T11:36:37.778Z,101309.47
2022-08-30T11:39:06.650Z,101302.22
2022-08-30T11:41:46.158Z,101303.78
2022-08-30T11:44:32.422Z,101306.88
2022-08-30T11:47:01.987Z,101310.03
2022-08-30T11:49:46.335Z,101305.19
2022-08-30T11:52:43.230Z,101304.72
2022-08-30T11:55:28.501Z,101291.94
2022-08-30T11:58:13.950Z,101290.97
2022-08-30T12:00:50.318Z,101305.50
2022-08-30T12:03:20.439Z,101306.44
2022-08-30T12:06:05.145Z,101297.50
2022-08-30T12:08:33.919Z,101287.22
2022-08-30T12:11:35.104Z,101295.59
2022-08-30T12:14:09.166Z,101298.59
2022-08-30T12:17:05.643Z,101299.66
2022-08-30T12:19:33.981Z,101290.38
2022-08-30T12:22:06.021Z,101288.00
2022-08-30T12:24:41.016Z,101290.41
2022-08-30T12:27:27.588Z,101288.06
2022-08-30T12:30:07.670Z,101288.56
2022-08-30T12:32:45.630Z,101276.22
2022-08-30T12:35:20.702Z,101279.72
2022-08-30T12:38:01.399Z,101271.88
2022-08-30T12:40:31.040Z,101276.31
2022-08-30T12:43:01.572Z,101267.00
2022-08-30T12:45:35.733Z,101278.72
2022-08-30T12:48:07.618Z,101274.28
2022-08-30T12:50:43.080Z,101264.44
2022-08-30T12:53:14.232Z,101264.53
2022-08-30T12:56:01.933Z,101260.03
2022-08-30T12:58:51.342Z,101264.94
2022-08-30T13:01:35.824Z,101264.88
2022-08-30T13:04:19.597Z,101258.16
2022-08-30T13:06:51.342Z,101255.06
2022-08-30T13:09:39.985Z,101248.59
2022-08-30T13:12:11.255Z,101252.09
2022-08-30T13:14:42.325Z,101257.50
2022-08-30T13:17:20.379Z,101255.38
2022-08-30T13:20:19.625Z,101252.00
2022-08-30T13:23:09.268Z,101252.81
2022-08-30T13:25:38.248Z,101248.38
2022-08-30T13:28:06.917Z,101244.88
2022-08-30T13:30:33.916Z,101244.03
2022-08-30T13:33:01.577Z,101232.84
2022-08-30T13:35:30.777Z,101238.03
2022-08-30T13:37:59.777Z,101245.38
2022-08-30T13:40:26.435Z,101236.53
2022-08-30T13:42:53.208Z,101245.94
2022-08-30T13:48:07.394Z,101241.59
2022-08-30T13:50:33.971Z,101249.56
2022-08-30T13:53:00.493Z,101241.91
2022-08-30T13:55:27.763Z,101235.16
2022-08-30T13:57:55.545Z,101239.63
2022-08-30T14:00:24.573Z,101239.22
2022-08-30T14:02:55.717Z,101226.81
2022-08-30T14:05:47.796Z,101236.34
2022-08-30T14:11:01.797Z,101253.00
2022-08-30T14:13:29.441Z,101244.84
2022-08-30T14:18:44.781Z,101232.00
2022-08-30T14:21:11.902Z,101239.25
2022-08-30T14:23:38.463Z,101240.78
2022-08-30T14:26:14.376Z,101238.16
2022-08-30T14:28:44.816Z,101245.03
2022-08-30T14:31:12.028Z,101239.22
2022-08-30T14:33:40.130Z,101250.78
2022-08-30T14:36:12.381Z,101244.88
2022-08-30T14:38:42.640Z,101241.28
2022-08-30T14:41:10.678Z,101238.41
2022-08-30T14:43:39.561Z,101245.34
2022-08-30T14:46:07.247Z,101238.63
2022-08-30T14:48:35.168Z,101245.84
2022-08-30T14:51:02.404Z,101239.38
2022-08-30T14:53:29.301Z,101241.50
2022-08-30T14:55:56.463Z,101245.59
2022-08-30T14:58:23.036Z,101237.84
2022-08-30T15:00:53.676Z,101230.50
2022-08-30T15:03:20.593Z,101239.56
2022-08-30T15:05:53.004Z,101248.75
2022-08-30T15:08:20.266Z,101244.72
2022-08-30T15:10:47.482Z,101234.53
2022-08-30T15:13:14.704Z,101238.66
2022-08-30T15:15:42.878Z,101243.25
2022-08-30T15:18:10.276Z,101237.06
2022-08-30T15:20:37.750Z,101238.44
2022-08-30T15:23:05.006Z,101230.03
2022-08-30T15:25:31.807Z,101214.44
2022-08-30T15:27:58.362Z,101227.31
2022-08-30T15:30:25.531Z,101223.88
2022-08-30T15:32:52.275Z,101213.06
2022-08-30T15:35:19.026Z,101227.25
2022-08-30T15:37:45.582Z,101220.41
2022-08-30T15:40:13.071Z,101211.38
2022-08-30T15:42:39.695Z,101205.81
2022-08-30T15:45:07.034Z,101202.00
2022-08-30T15:47:33.665Z,101206.50
2022-08-30T15:50:04.368Z,101205.91
2022-08-30T15:52:31.457Z,101210.91
2022-08-30T15:54:58.372Z,101207.06
2022-08-30T15:57:25.775Z,101215.09
2022-08-30T15:59:56.905Z,101212.66
2022-08-30T16:02:27.635Z,101207.72
2022-08-30T16:04:54.897Z,101210.38
2022-08-30T16:07:21.421Z,101200.56
2022-08-30T16:09:48.266Z,101202.25
2022-08-30T16:12:23.388Z,101195.28
2022-08-30T16:14:51.638Z,101196.75
2022-08-30T16:17:18.648Z,101185.41
2022-08-30T16:19:47.101Z,101199.84
2022-08-30T16:22:28.002Z,101199.38
2022-08-30T16:25:04.937Z,101200.66
2022-08-30T16:27:33.612Z,101197.06
2022-08-30T16:30:00.582Z,101209.59
2022-08-30T16:32:27.318Z,101198.66
2022-08-30T16:34:54.338Z,101208.06
2022-08-30T16:37:20.857Z,101199.28
2022-08-30T16:39:47.675Z,101198.03
2022-08-30T16:42:15.016Z,101182.50
2022-08-30T16:44:48.335Z,101188.53
2022-08-30T16:47:16.382Z,101185.88
2022-08-30T16:49:43.082Z,101194.50
2022-08-30T16:52:11.316Z,101188.31
2022-08-30T16:54:38.874Z,101188.69
2022-08-30T16:57:06.479Z,101191.81
2022-08-30T16:59:33.717Z,101201.06
2022-08-30T17:02:00.801Z,101197.09
2022-08-30T17:04:27.393Z,101196.97
2022-08-30T17:06:53.952Z,101202.13
2022-08-30T17:09:20.610Z,101185.66
2022-08-30T17:11:48.727Z,101192.53
2022-08-30T17:14:22.978Z,101188.50
2022-08-30T17:16:55.801Z,101191.59
2022-08-30T17:19:26.836Z,101202.38
2022-08-30T17:21:56.162Z,101208.94
2022-08-30T17:24:22.731Z,101202.03
2022-08-30T17:26:51.288Z,101201.03
2022-08-30T17:29:18.278Z,101201.75
2022-08-30T17:31:50.882Z,101211.00
2022-08-30T17:34:21.052Z,101211.59
2022-08-30T17:36:49.820Z,101216.50
2022-08-30T17:39:16.921Z,101217.50
2022-08-30T17:41:49.271Z,101216.50
2022-08-30T17:44:25.794Z,101225.69
2022-08-30T17:46:53.454Z,101217.53
2022-08-30T17:49:21.125Z,101219.16
2022-08-30T17:51:56.107Z,101222.66
2022-08-30T17:54:26.001Z,101237.69
2022-08-30T17:56:54.162Z,101235.88
2022-08-30T17:59:25.109Z,101241.00
2022-08-30T18:02:11.372Z,101244.03
2022-08-30T18:04:39.470Z,101249.28
2022-08-30T18:07:09.408Z,101247.84
2022-08-30T18:09:40.176Z,101261.66
2022-08-30T18:12:07.312Z,101255.34
2022-08-30T18:14:34.722Z,101259.56
2022-08-30T18:17:05.131Z,101266.44
2022-08-30T18:19:32.042Z,101266.78
2022-08-30T18:21:59.568Z,101268.94
2022-08-30T18:24:29.860Z,101278.19
2022-08-30T18:26:56.939Z,101282.59
2022-08-30T18:29:29.478Z,101284.69
2022-08-30T18:31:59.258Z,101293.53
2022-08-30T18:34:25.794Z,101289.16
2022-08-30T18:36:52.427Z,101289.16
2022-08-30T18:39:19.226Z,101296.03
2022-08-30T18:41:47.245Z,101293.50
2022-08-30T18:44:28.887Z,101296.25
2022-08-30T18:46:57.467Z,101291.34
2022-08-30T18:49:27.761Z,101295.31
2022-08-30T18:51:54.777Z,101284.78
2022-08-30T18:54:21.457Z,101300.38
2022-08-30T18:56:49.574Z,101300.38
2022-08-30T18:59:18.949Z,101299.41
2022-08-30T19:01:47.046Z,101302.75
2022-08-30T19:04:29.424Z,101308.84
2022-08-30T19:07:02.237Z,101310.69
2022-08-30T19:09:29.064Z,101315.38
2022-08-30T19:11:55.651Z,101317.00
2022-08-30T19:14:22.217Z,101318.56
2022-08-30T19:16:49.106Z,101315.09
2022-08-30T19:19:16.595Z,101317.63
2022-08-30T19:21:43.334Z,101323.06
2022-08-30T19:24:11.450Z,101329.75
2022-08-30T19:26:38.660Z,101329.75
2022-08-30T19:29:07.162Z,101328.63
2022-08-30T19:31:35.666Z,101327.56
2022-08-30T19:34:02.510Z,101328.00
2022-08-30T19:36:30.530Z,101322.97
2022-08-30T19:38:57.123Z,101335.13
2022-08-30T19:41:24.266Z,101328.19
2022-08-30T19:43:51.246Z,101336.34
2022-08-30T19:46:17.786Z,101333.25
2022-08-30T19:48:44.508Z,101337.50
2022-08-30T19:51:13.892Z,101338.03
2022-08-30T19:53:41.827Z,101339.91
2022-08-30T19:56:08.557Z,101337.75
2022-08-30T19:58:36.125Z,101342.28
2022-08-30T20:01:11.663Z,101338.72
2022-08-30T20:03:51.887Z,101332.84
2022-08-30T20:06:19.488Z,101335.06
2022-08-30T20:08:47.433Z,101332.41
2022-08-30T20:11:16.722Z,101329.38
2022-08-30T20:13:44.767Z,101334.28
2022-08-30T20:16:13.111Z,101334.47
2022-08-30T20:18:41.797Z,101336.13
2022-08-30T20:21:13.372Z,101332.34
2022-08-30T20:23:41.959Z,101330.75
2022-08-30T20:26:10.272Z,101340.63
2022-08-30T20:28:37.202Z,101345.66
2022-08-30T20:31:06.800Z,101344.19
2022-08-30T20:33:36.736Z,101342.22
2022-08-30T20:36:05.886Z,101344.16
2022-08-30T20:38:33.186Z,101346.22
2022-08-30T20:41:01.144Z,101345.34
2022-08-30T20:43:29.880Z,101344.97
2022-08-30T20:45:56.918Z,101346.13
2022-08-30T20:48:28.496Z,101354.25
2022-08-30T20:50:55.150Z,101354.41
2022-08-30T20:53:21.745Z,101364.16
2022-08-30T20:55:48.390Z,101366.09
2022-08-30T20:58:15.441Z,101371.31
2022-08-30T21:00:46.057Z,101370.97
2022-08-30T21:03:26.155Z,101366.44
2022-08-30T21:05:54.977Z,101374.22
2022-08-30T21:08:21.700Z,101369.91
2022-08-30T21:10:48.336Z,101367.00
2022-08-30T21:13:15.218Z,101372.88
2022-08-30T21:15:45.821Z,101368.38
2022-08-30T21:18:15.701Z,101368.91
2022-08-30T21:20:42.719Z,101363.13
2022-08-30T21:23:09.640Z,101369.41
2022-08-30T21:25:43.661Z,101368.28
2022-08-30T21:28:10.477Z,101372.06
2022-08-30T21:30:37.705Z,101379.72
2022-08-30T21:33:06.148Z,101376.88
2022-08-30T21:35:51.600Z,101374.88
2022-08-30T21:38:19.882Z,101383.56
2022-08-30T21:40:48.270Z,101387.69
2022-08-30T21:43:15.916Z,101390.03
2022-08-30T21:45:44.059Z,101383.84
2022-08-30T21:48:12.179Z,101389.19
2022-08-30T21:50:40.829Z,101387.69
2022-08-30T21:53:07.872Z,101388.75
2022-08-30T21:55:34.438Z,101389.94
2022-08-30T21:58:01.386Z,101403.34
2022-08-30T22:00:30.433Z,101401.16
2022-08-30T22:02:57.461Z,101393.03
2022-08-30T22:05:24.442Z,101394.53
2022-08-30T22:07:51.010Z,101401.59
2022-08-30T22:10:19.589Z,101391.38
2022-08-30T22:12:46.147Z,101390.41
2022-08-30T22:15:14.575Z,101399.44
2022-08-30T22:17:41.181Z,101391.59
2022-08-30T22:20:08.439Z,101397.53
2022-08-30T22:22:34.961Z,101395.00
2022-08-30T22:25:01.566Z,101397.41
2022-08-30T22:27:28.220Z,101405.38
2022-08-30T22:29:54.778Z,101405.47
2022-08-30T22:32:21.480Z,101402.22
2022-08-30T22:34:50.354Z,101406.44
2022-08-30T22:37:17.219Z,101406.88
2022-08-30T22:40:11.079Z,101406.47
2022-08-30T22:42:38.430Z,101407.47
2022-08-30T22:45:05.589Z,101408.53
2022-08-30T22:47:36.999Z,101416.56
2022-08-30T22:50:03.773Z,101410.00
2022-08-30T22:52:30.322Z,101425.91
2022-08-30T22:54:56.875Z,101420.50
2022-08-30T22:57:24.049Z,101430.34
2022-08-30T22:59:50.903Z,101430.09
2022-08-30T23:02:17.951Z,101430.56
2022-08-30T23:04:44.615Z,101430.41
2022-08-30T23:07:11.178Z,101423.91
2022-08-30T23:09:38.086Z,101427.47
2022-08-30T23:12:06.214Z,101419.88
2022-08-30T23:14:32.764Z,101427.22
2022-08-30T23:16:59.410Z,101419.00
2022-08-30T23:19:26.967Z,101428.59
2022-08-30T23:21:53.854Z,101421.31
2022-08-30T23:24:38.971Z,101423.00
2022-08-30T23:27:24.537Z,101415.59
2022-08-30T23:30:09.918Z,101414.84
2022-08-30T23:32:55.538Z,101415.22
2022-08-30T23:35:41.487Z,101425.84
2022-08-30T23:38:26.753Z,101418.22
2022-08-30T23:41:12.114Z,101420.44
2022-08-30T23:43:57.607Z,101419.63
2022-08-30T23:46:42.839Z,101417.47
2022-08-30T23:49:28.249Z,101419.50
2022-08-30T23:52:13.588Z,101419.97
2022-08-30T23:54:58.993Z,101421.47
2022-08-30T23:57:45.499Z,101426.53
